Main page
METAR-TAF:

METAR-TAF

Airports :

Sakon Nakhon Airport

Sakon Nakhon, Thailand

latitude: 17-11-42N, longitude: 104-07-08E, elevation: 161 m

Current weather observation

The report was made 41 minutes ago, at 01:00 UTC
Wind 6 kt from the Southeast
Temperature 28°C
Humidity 66%
Pressure 1015 hPa
Visibility 10 km or more
no clouds below 1500 m and no cumulonimbus

METAR: VTUI 240100Z 14006KT CAVOK 28/21 Q1015 NOSIG

Time: 08:41 (01:41 UTC)

Forecast

The report was made 2 hours and 41 minutes ago, at 23:00 UTC
Forecast valid from 24 at 00 UTC to 24 at 24 UTC
Wind 5 kt from the East/Southeast
Visibility: 8000 m
Few clouds at a height of 3000 ft

TAF: VTUI 232300Z 2400/2424 12005KT 8000 FEW030

Weather observations and forecasts of more than 4000 airports (METAR and TAF reports).

The available stations are represented by yellow and red dots on the map.

Hover mouse over dot to see the name of the station.

Then click to see weather observations and forecasts.

To change the map : click on the green buttons with a black cross to zoom in, on the green button with a dash to zoom out, or on the green arrows for adjacent maps.


METAR-TAF: